createdAt,value
2022-10-22T00:00:14.189Z,5.13
2022-10-22T00:06:17.595Z,5.97
2022-10-22T00:12:22.366Z,5.80
2022-10-22T00:18:25.822Z,2.88
2022-10-22T00:24:29.254Z,3.40
2022-10-22T00:30:34.218Z,3.72
2022-10-22T00:36:37.602Z,5.53
2022-10-22T00:42:41.367Z,4.15
2022-10-22T00:48:46.350Z,4.80
2022-10-22T00:54:49.938Z,4.32
2022-10-22T01:00:53.605Z,5.93
2022-10-22T01:06:58.354Z,5.38
2022-10-22T01:13:08.250Z,6.22
2022-10-22T01:19:24.193Z,11.00
2022-10-22T01:25:33.460Z,7.05
2022-10-22T01:31:40.549Z,6.32
2022-10-22T01:37:46.521Z,4.85
2022-10-22T01:43:49.860Z,5.20
2022-10-22T01:50:02.387Z,7.28
2022-10-22T01:56:14.196Z,3.67
2022-10-22T02:02:22.292Z,5.05
2022-10-22T02:08:29.857Z,2.80
2022-10-22T02:14:33.855Z,1.75
2022-10-22T02:20:38.211Z,3.70
2022-10-22T02:26:44.816Z,4.00
2022-10-22T02:32:52.024Z,5.70
2022-10-22T02:38:55.773Z,3.85
2022-10-22T02:45:00.518Z,6.95
2022-10-22T02:51:03.877Z,6.18
2022-10-22T02:57:07.356Z,7.28
2022-10-22T03:03:12.208Z,4.22
2022-10-22T03:09:15.567Z,3.50
2022-10-22T03:15:19.247Z,3.97
2022-10-22T03:21:28.096Z,5.45
2022-10-22T03:27:31.703Z,3.70
2022-10-22T03:33:35.164Z,6.65
2022-10-22T03:39:42.475Z,4.40
2022-10-22T03:45:45.843Z,4.30
2022-10-22T03:51:49.412Z,3.42
2022-10-22T03:57:54.184Z,5.00
2022-10-22T04:03:57.840Z,3.45
2022-10-22T04:10:01.345Z,4.85
2022-10-22T04:16:12.726Z,2.03
2022-10-22T04:22:16.090Z,4.18
2022-10-22T04:28:19.488Z,4.43
2022-10-22T04:34:24.231Z,2.15
2022-10-22T04:40:27.641Z,3.28
2022-10-22T04:46:31.802Z,5.55
2022-10-22T04:52:36.598Z,3.83
2022-10-22T04:58:40.952Z,2.33
2022-10-22T05:04:45.610Z,4.57
2022-10-22T05:10:50.332Z,5.03
2022-10-22T05:16:56.593Z,2.88
2022-10-22T05:22:59.948Z,6.13
2022-10-22T05:29:04.744Z,5.60
2022-10-22T05:35:08.760Z,5.50
2022-10-22T05:41:13.687Z,3.40
2022-10-22T05:47:18.407Z,6.00
2022-10-22T05:53:21.771Z,3.45
2022-10-22T05:59:25.222Z,6.10
2022-10-22T06:05:30.033Z,3.72
2022-10-22T06:11:35.162Z,11.75
2022-10-22T06:17:38.918Z,4.53
2022-10-22T06:23:44.117Z,7.18
2022-10-22T06:29:49.080Z,7.03
2022-10-22T06:35:52.502Z,6.80
2022-10-22T06:41:57.265Z,6.05
2022-10-22T06:48:00.636Z,7.20
2022-10-22T06:54:04.075Z,6.00
2022-10-22T07:00:09.785Z,4.57
2022-10-22T07:06:13.937Z,9.23
2022-10-22T07:12:17.323Z,5.15
2022-10-22T07:18:22.055Z,6.78
2022-10-22T07:24:25.554Z,5.13
2022-10-22T07:30:28.925Z,6.25
2022-10-22T07:36:34.200Z,4.68
2022-10-22T07:42:37.562Z,4.75
2022-10-22T07:48:41.211Z,4.72
2022-10-22T07:54:46.000Z,4.97
2022-10-22T08:00:49.848Z,5.22
2022-10-22T08:06:53.250Z,3.13
2022-10-22T08:12:58.382Z,3.47
2022-10-22T08:19:01.876Z,3.40
2022-10-22T08:25:05.484Z,3.83
2022-10-22T08:31:10.362Z,4.72
2022-10-22T08:37:14.484Z,4.15
2022-10-22T08:43:34.489Z,6.60
2022-10-22T08:49:42.130Z,3.05
2022-10-22T08:55:46.623Z,6.55
2022-10-22T09:01:51.068Z,4.10
2022-10-22T09:07:56.813Z,6.25
2022-10-22T09:14:01.799Z,3.65
2022-10-22T09:20:11.134Z,6.47
2022-10-22T09:26:18.213Z,4.00
2022-10-22T09:32:21.887Z,4.95
2022-10-22T09:38:27.324Z,6.88
2022-10-22T09:44:34.691Z,4.07
2022-10-22T09:50:41.303Z,7.25
2022-10-22T09:56:48.787Z,8.27
2022-10-22T10:02:55.418Z,4.22
2022-10-22T10:09:05.848Z,3.80
2022-10-22T10:15:15.734Z,2.75
2022-10-22T10:21:30.772Z,8.20
2022-10-22T10:27:37.039Z,3.35
2022-10-22T10:33:46.738Z,5.45
2022-10-22T10:40:05.705Z,3.95
2022-10-22T10:46:13.061Z,5.13
2022-10-22T10:52:22.350Z,4.70
2022-10-22T10:58:33.699Z,3.67
2022-10-22T11:04:51.964Z,3.53
2022-10-22T11:10:56.839Z,4.30
2022-10-22T11:17:06.284Z,4.70
2022-10-22T11:23:20.149Z,6.03
2022-10-22T11:29:28.309Z,2.97
2022-10-22T11:35:36.819Z,6.82
2022-10-22T11:41:40.508Z,6.80
2022-10-22T11:47:54.310Z,5.18
2022-10-22T11:54:00.035Z,8.25
2022-10-22T12:00:03.430Z,7.20
2022-10-22T12:06:19.872Z,4.07
2022-10-22T12:12:29.147Z,4.05
2022-10-22T12:18:36.571Z,4.70
2022-10-22T12:24:41.259Z,4.47
2022-10-22T12:30:46.097Z,5.60
2022-10-22T12:36:50.523Z,4.78
2022-10-22T12:42:55.517Z,3.78
2022-10-22T12:49:02.410Z,5.30
2022-10-22T12:55:08.590Z,4.28
2022-10-22T13:01:13.909Z,5.85
2022-10-22T13:07:22.226Z,6.03
2022-10-22T13:13:32.982Z,4.03
2022-10-22T13:20:05.286Z,9.48
2022-10-22T13:26:15.307Z,5.25
2022-10-22T13:32:28.078Z,5.47
2022-10-22T13:38:31.585Z,5.07
2022-10-22T13:44:36.672Z,2.70
2022-10-22T13:50:40.441Z,3.58
2022-10-22T13:56:43.898Z,7.65
2022-10-22T14:02:49.899Z,5.60
2022-10-22T14:08:56.573Z,4.07
2022-10-22T14:15:00.045Z,3.95
2022-10-22T14:21:07.465Z,4.47
2022-10-22T14:27:12.205Z,2.15
2022-10-22T14:33:16.797Z,3.67
2022-10-22T14:39:22.034Z,2.50
2022-10-22T14:45:26.290Z,4.40
2022-10-22T14:51:30.516Z,4.13
2022-10-22T14:57:35.495Z,3.10
2022-10-22T15:03:39.151Z,3.47
2022-10-22T15:09:42.535Z,3.47
2022-10-22T15:15:47.292Z,3.95
2022-10-22T15:21:50.834Z,1.75
2022-10-22T15:28:01.839Z,2.72
2022-10-22T15:34:12.454Z,3.38
2022-10-22T15:40:15.923Z,3.15
2022-10-22T15:46:20.456Z,2.20
2022-10-22T15:52:25.996Z,3.38
2022-10-22T15:58:29.372Z,5.53
2022-10-22T16:04:32.717Z,3.80
2022-10-22T16:10:37.425Z,4.53
2022-10-22T16:16:44.166Z,4.93
2022-10-22T16:22:50.875Z,6.32
2022-10-22T16:28:55.609Z,5.25
2022-10-22T16:34:59.078Z,5.60
2022-10-22T16:41:09.195Z,5.30
2022-10-22T16:47:13.944Z,5.50
2022-10-22T16:53:17.549Z,5.72
2022-10-22T16:59:22.996Z,6.10
2022-10-22T17:05:27.985Z,5.45
2022-10-22T17:11:36.245Z,6.88
2022-10-22T17:17:54.122Z,9.02
2022-10-22T17:23:59.018Z,6.47
2022-10-22T17:30:08.485Z,7.32
2022-10-22T17:36:13.706Z,7.82
2022-10-22T17:42:19.140Z,7.43
2022-10-22T17:48:27.403Z,8.18
2022-10-22T17:54:34.021Z,6.55
2022-10-22T18:00:39.197Z,9.85
2022-10-22T18:06:42.878Z,7.80
2022-10-22T18:12:46.241Z,11.55
2022-10-22T18:18:53.084Z,7.68
2022-10-22T18:25:00.812Z,14.13
2022-10-22T18:31:06.890Z,14.27
2022-10-22T18:37:12.930Z,12.23
2022-10-22T18:43:16.780Z,19.38
2022-10-22T18:49:22.217Z,12.82
2022-10-22T18:55:32.608Z,13.27
2022-10-22T19:01:36.016Z,11.85
2022-10-22T19:07:43.964Z,26.75
2022-10-22T19:13:51.449Z,23.98
2022-10-22T19:19:55.141Z,10.38
2022-10-22T19:26:02.754Z,11.68
2022-10-22T19:38:16.028Z,11.88
2022-10-22T19:44:20.000Z,11.73
2022-10-22T19:50:24.772Z,12.27
2022-10-22T19:56:28.269Z,10.50
2022-10-22T20:02:31.788Z,13.98
2022-10-22T20:08:38.090Z,13.63
2022-10-22T20:14:45.780Z,11.07
2022-10-22T20:20:49.188Z,12.48
2022-10-22T20:26:54.089Z,13.40
2022-10-22T20:32:57.577Z,12.52
2022-10-22T20:39:06.834Z,16.25
2022-10-22T20:45:14.752Z,15.40
2022-10-22T20:51:18.338Z,14.82
2022-10-22T20:57:24.984Z,12.75
2022-10-22T21:03:29.823Z,14.80
2022-10-22T21:09:35.714Z,14.63
2022-10-22T21:15:39.095Z,14.23
2022-10-22T21:21:46.510Z,16.58
2022-10-22T21:27:49.942Z,16.73
2022-10-22T21:33:54.272Z,15.68
2022-10-22T21:40:01.394Z,13.77
2022-10-22T21:46:07.956Z,14.88
2022-10-22T21:52:11.921Z,11.60
2022-10-22T21:58:16.688Z,11.35
2022-10-22T22:04:20.260Z,10.82
2022-10-22T22:10:25.213Z,12.43
2022-10-22T22:16:30.987Z,12.20
2022-10-22T22:22:34.365Z,10.80
2022-10-22T22:28:38.027Z,9.57
2022-10-22T22:34:42.842Z,14.27
2022-10-22T22:40:46.312Z,8.10
2022-10-22T22:46:49.874Z,7.32
2022-10-22T22:52:54.669Z,9.65
2022-10-22T22:58:58.515Z,10.10
2022-10-22T23:05:01.922Z,11.60
2022-10-22T23:11:08.894Z,10.18
2022-10-22T23:17:13.140Z,12.52
2022-10-22T23:23:27.950Z,7.53
2022-10-22T23:29:40.634Z,8.30
2022-10-22T23:35:49.004Z,6.90
2022-10-22T23:41:53.355Z,9.60
2022-10-22T23:47:58.943Z,8.85
2022-10-22T23:54:04.331Z,9.15
